Terminal Aerodrome Forecast
Issued by NWS

Home | Current Version | Previous Version | Text Only | Print | Product List | Glossary On
Versions: 1 2 3 4 5 6 7 8 9 10 11 12 13 14 15 16
365
FTUS46 KMTR 181705 AAB
TAFSJC
TAF AMD
KSJC 181705Z 1817/1912 VRB03KT 3SM BR FEW002 SCT004 BKN008
     FM181730 VRB04KT P6SM FEW004 SCT010
     FM182100 31012KT P6SM BKN250
     FM190400 30008KT P6SM BKN250=

USA.gov is the U.S. government's official web portal to all federal, state and local government web resources and services.